Time,TemperatureF,DewpointF,PressureIn,WindDirection,WindDirectionDegrees,WindSpeedMPH,WindSpeedGustMPH,Humidity,HourlyPrecipIn,Conditions,Clouds,dailyrainin,SoftwareType,DateUTC
2013-02-24 00:01:00,34.4,31.8,29.96,East,90,0.0,0.0,90,0.00,,,0.03,Wunderground v.1.15,2013-02-24 05:01:00,
2013-02-24 00:03:00,34.4,31.8,29.96,East,90,0.0,0.0,90,0.00,,,0.00,Wunderground v.1.15,2013-02-24 05:03:00,
2013-02-24 00:05:00,34.4,31.8,29.96,East,90,0.0,0.0,90,0.00,,,0.00,Wunderground v.1.15,2013-02-24 05:05:00,
2013-02-24 00:09:00,34.4,31.8,29.96,East,90,0.0,0.0,90,0.00,,,0.00,Wunderground v.1.15,2013-02-24 05:09:00,
2013-02-24 00:15:00,34.4,31.8,29.96,East,90,0.0,0.0,90,0.00,,,0.00,Wunderground v.1.15,2013-02-24 05:15:00,
2013-02-24 00:21:00,34.4,31.8,29.95,East,90,0.0,0.0,90,0.00,,,0.00,Wunderground v.1.15,2013-02-24 05:21:00,
2013-02-24 00:27:00,34.4,31.8,29.95,East,90,0.0,0.0,90,0.00,,,0.00,Wunderground v.1.15,2013-02-24 05:27:00,
2013-02-24 00:33:00,34.4,31.8,29.94,East,90,0.0,0.0,90,0.00,,,0.01,Wunderground v.1.15,2013-02-24 05:33:00,
2013-02-24 00:39:00,34.4,31.8,29.94,East,90,0.0,0.0,90,0.00,,,0.01,Wunderground v.1.15,2013-02-24 05:39:00,
2013-02-24 00:45:00,34.4,31.8,29.94,East,90,0.0,0.0,90,0.00,,,0.01,Wunderground v.1.15,2013-02-24 05:45:00,
2013-02-24 00:51:00,34.4,31.8,29.94,East,88,0.0,0.0,90,0.00,,,0.01,Wunderground v.1.15,2013-02-24 05:51:00,
2013-02-24 00:57:00,34.4,31.8,29.93,NW,309,0.0,0.0,90,0.00,,,0.01,Wunderground v.1.15,2013-02-24 05:57:00,
2013-02-24 01:03:00,34.4,31.8,29.93,West,276,0.0,0.0,90,0.00,,,0.01,Wunderground v.1.15,2013-02-24 06:03:00,
2013-02-24 01:09:00,34.4,32.0,29.93,West,277,0.0,0.0,91,0.00,,,0.02,Wunderground v.1.15,2013-02-24 06:09:00,
2013-02-24 01:15:00,34.5,32.1,29.93,SW,230,0.0,0.0,91,0.00,,,0.02,Wunderground v.1.15,2013-02-24 06:15:00,
2013-02-24 01:21:00,34.6,32.0,29.93,SW,231,0.0,0.0,90,0.00,,,0.02,Wunderground v.1.15,2013-02-24 06:21:00,
2013-02-24 01:27:00,34.6,32.0,29.93,SW,230,0.0,0.0,90,0.00,,,0.02,Wunderground v.1.15,2013-02-24 06:27:00,
2013-02-24 01:33:00,34.6,32.0,29.92,SW,231,0.0,0.0,90,0.00,,,0.02,Wunderground v.1.15,2013-02-24 06:33:00,
2013-02-24 01:39:00,34.7,32.1,29.92,SW,230,0.0,0.0,90,0.00,,,0.02,Wunderground v.1.15,2013-02-24 06:39:00,
2013-02-24 01:45:00,34.8,32.4,29.92,SW,231,0.0,0.0,91,0.00,,,0.02,Wunderground v.1.15,2013-02-24 06:45:00,
2013-02-24 01:51:00,34.8,32.4,29.92,SW,231,0.0,0.0,91,0.00,,,0.03,Wunderground v.1.15,2013-02-24 06:51:00,
2013-02-24 01:57:00,34.9,32.5,29.91,SW,231,0.0,0.0,91,0.00,,,0.03,Wunderground v.1.15,2013-02-24 06:57:00,
2013-02-24 02:03:00,34.9,32.5,29.91,SW,231,0.0,0.0,91,0.00,,,0.03,Wunderground v.1.15,2013-02-24 07:03:00,
2013-02-24 02:09:00,35.0,32.6,29.91,SW,231,0.0,1.0,91,0.00,,,0.03,Wunderground v.1.15,2013-02-24 07:09:00,
2013-02-24 02:15:00,35.0,32.6,29.90,SW,231,0.0,1.0,91,0.00,,,0.03,Wunderground v.1.15,2013-02-24 07:15:00,
2013-02-24 02:21:00,35.1,32.7,29.90,SW,231,0.0,1.0,91,0.00,,,0.03,Wunderground v.1.15,2013-02-24 07:21:00,
2013-02-24 02:27:00,35.1,32.7,29.89,SW,231,0.0,1.0,91,0.00,,,0.04,Wunderground v.1.15,2013-02-24 07:27:00,
2013-02-24 02:33:00,35.0,32.6,29.89,WNW,284,0.0,1.0,91,0.00,,,0.04,Wunderground v.1.15,2013-02-24 07:33:00,
2013-02-24 02:39:00,35.1,32.7,29.89,WNW,284,0.0,1.0,91,0.00,,,0.04,Wunderground v.1.15,2013-02-24 07:39:00,
2013-02-24 02:45:00,35.1,32.7,29.88,WNW,284,0.0,1.0,91,0.04,,,0.05,Wunderground v.1.15,2013-02-24 07:45:00,
2013-02-24 02:51:00,35.2,32.8,29.88,WNW,284,0.0,1.0,91,0.04,,,0.05,Wunderground v.1.15,2013-02-24 07:51:00,
2013-02-24 02:57:00,35.3,32.9,29.87,WNW,284,0.0,1.0,91,0.04,,,0.06,Wunderground v.1.15,2013-02-24 07:57:00,
2013-02-24 03:03:00,35.3,32.9,29.87,WNW,284,0.0,1.0,91,0.04,,,0.06,Wunderground v.1.15,2013-02-24 08:03:00,
2013-02-24 03:09:00,35.5,33.1,29.87,WNW,284,0.0,1.0,91,0.04,,,0.06,Wunderground v.1.15,2013-02-24 08:09:00,
2013-02-24 03:15:00,35.5,33.1,29.86,WNW,284,0.0,1.0,91,0.00,,,0.06,Wunderground v.1.15,2013-02-24 08:15:00,
2013-02-24 03:21:00,35.6,33.2,29.86,WNW,284,0.0,1.0,91,0.00,,,0.07,Wunderground v.1.15,2013-02-24 08:21:00,
2013-02-24 03:27:00,35.7,33.3,29.86,WNW,284,0.0,1.0,91,0.07,,,0.08,Wunderground v.1.15,2013-02-24 08:27:00,
2013-02-24 03:33:00,35.8,33.4,29.86,WNW,283,0.0,1.0,91,0.07,,,0.08,Wunderground v.1.15,2013-02-24 08:33:00,
2013-02-24 03:39:00,35.9,33.5,29.86,WNW,284,0.0,1.0,91,0.04,,,0.08,Wunderground v.1.15,2013-02-24 08:39:00,
2013-02-24 03:45:00,36.0,33.6,29.85,WNW,283,0.0,1.0,91,0.04,,,0.09,Wunderground v.1.15,2013-02-24 08:45:00,
2013-02-24 03:51:00,36.1,33.7,29.85,WNW,284,0.0,1.0,91,0.04,,,0.09,Wunderground v.1.15,2013-02-24 08:51:00,
2013-02-24 03:57:00,36.2,33.8,29.85,WNW,284,0.0,1.0,91,0.04,,,0.09,Wunderground v.1.15,2013-02-24 08:57:00,
2013-02-24 04:03:00,36.3,33.9,29.85,West,280,0.0,1.0,91,0.04,,,0.10,Wunderground v.1.15,2013-02-24 09:03:00,
2013-02-24 04:09:00,36.3,33.9,29.84,West,280,0.0,1.0,91,0.04,,,0.10,Wunderground v.1.15,2013-02-24 09:09:00,
2013-02-24 04:15:00,36.4,34.0,29.85,West,280,0.0,1.0,91,0.05,,,0.11,Wunderground v.1.15,2013-02-24 09:15:00,
2013-02-24 04:21:00,36.4,34.0,29.85,West,280,0.0,1.0,91,0.10,,,0.12,Wunderground v.1.15,2013-02-24 09:21:00,
2013-02-24 04:27:00,36.3,33.9,29.84,West,280,0.0,1.0,91,0.07,,,0.13,Wunderground v.1.15,2013-02-24 09:27:00,
2013-02-24 04:33:00,36.4,34.0,29.84,West,280,0.0,1.0,91,0.10,,,0.14,Wunderground v.1.15,2013-02-24 09:33:00,
2013-02-24 04:39:00,36.4,34.0,29.84,West,280,0.0,1.0,91,0.07,,,0.14,Wunderground v.1.15,2013-02-24 09:39:00,
2013-02-24 04:45:00,36.4,34.0,29.83,West,280,0.0,1.0,91,0.05,,,0.15,Wunderground v.1.15,2013-02-24 09:45:00,
2013-02-24 04:51:00,36.5,34.1,29.83,West,280,0.0,1.0,91,0.07,,,0.16,Wunderground v.1.15,2013-02-24 09:51:00,
2013-02-24 04:57:00,36.5,34.1,29.83,West,280,0.0,1.0,91,0.07,,,0.16,Wunderground v.1.15,2013-02-24 09:57:00,
2013-02-24 05:03:00,36.5,34.1,29.82,West,280,0.0,1.0,91,0.05,,,0.16,Wunderground v.1.15,2013-02-24 10:03:00,
2013-02-24 05:09:00,36.6,34.2,29.82,West,280,0.0,1.0,91,0.04,,,0.17,Wunderground v.1.15,2013-02-24 10:09:00,
2013-02-24 05:15:00,36.7,34.3,29.82,West,280,0.0,1.0,91,0.04,,,0.17,Wunderground v.1.15,2013-02-24 10:15:00,
2013-02-24 05:21:00,36.9,34.5,29.82,West,280,0.0,1.0,91,0.04,,,0.17,Wunderground v.1.15,2013-02-24 10:21:00,
2013-02-24 05:27:00,37.0,34.6,29.83,West,280,0.0,1.0,91,0.00,,,0.18,Wunderground v.1.15,2013-02-24 10:27:00,
2013-02-24 05:33:00,37.0,34.6,29.83,West,280,0.0,1.0,91,0.00,,,0.18,Wunderground v.1.15,2013-02-24 10:33:00,
2013-02-24 05:39:00,37.1,34.7,29.83,West,280,0.0,1.0,91,0.00,,,0.18,Wunderground v.1.15,2013-02-24 10:39:00,
2013-02-24 05:45:00,37.2,34.8,29.83,ESE,121,0.0,1.0,91,0.00,,,0.18,Wunderground v.1.15,2013-02-24 10:45:00,
2013-02-24 05:51:00,37.2,34.8,29.83,SW,232,0.0,1.0,91,0.00,,,0.19,Wunderground v.1.15,2013-02-24 10:51:00,
2013-02-24 05:57:00,37.2,34.8,29.83,West,276,0.0,1.0,91,0.00,,,0.19,Wunderground v.1.15,2013-02-24 10:57:00,
2013-02-24 06:03:00,37.1,34.7,29.83,West,276,0.0,1.0,91,0.05,,,0.20,Wunderground v.1.15,2013-02-24 11:03:00,
2013-02-24 06:09:00,37.2,34.8,29.83,West,276,0.0,1.0,91,0.05,,,0.20,Wunderground v.1.15,2013-02-24 11:09:00,
2013-02-24 06:15:00,37.1,34.7,29.83,WSW,248,0.0,1.0,91,0.05,,,0.21,Wunderground v.1.15,2013-02-24 11:15:00,
2013-02-24 06:21:00,37.2,34.8,29.83,SW,222,0.0,1.0,91,0.05,,,0.21,Wunderground v.1.15,2013-02-24 11:21:00,
2013-02-24 06:27:00,37.2,34.8,29.82,SW,222,0.0,1.0,91,0.06,,,0.22,Wunderground v.1.15,2013-02-24 11:27:00,
2013-02-24 06:33:00,37.1,34.7,29.82,SW,222,0.0,1.0,91,0.14,,,0.24,Wunderground v.1.15,2013-02-24 11:33:00,
2013-02-24 06:39:00,37.0,34.6,29.82,SW,222,0.0,1.0,91,0.10,,,0.24,Wunderground v.1.15,2013-02-24 11:39:00,
2013-02-24 06:45:00,36.9,34.5,29.82,SW,222,0.0,1.0,91,0.13,,,0.26,Wunderground v.1.15,2013-02-24 11:45:00,
2013-02-24 06:51:00,36.9,34.5,29.83,SW,222,0.0,1.0,91,0.08,,,0.26,Wunderground v.1.15,2013-02-24 11:51:00,
2013-02-24 06:57:00,36.9,34.5,29.83,SW,221,0.0,1.0,91,0.07,,,0.27,Wunderground v.1.15,2013-02-24 11:57:00,
2013-02-24 07:03:00,36.9,34.5,29.84,WSW,237,0.0,1.0,91,0.10,,,0.28,Wunderground v.1.15,2013-02-24 12:03:00,
2013-02-24 07:09:00,36.9,34.5,29.83,WSW,237,0.0,1.0,91,0.07,,,0.28,Wunderground v.1.15,2013-02-24 12:09:00,
2013-02-24 07:15:00,36.8,34.4,29.83,South,190,0.0,1.0,91,0.14,,,0.29,Wunderground v.1.15,2013-02-24 12:15:00,
2013-02-24 07:21:00,36.6,34.2,29.83,South,190,0.0,1.0,91,0.10,,,0.30,Wunderground v.1.15,2013-02-24 12:21:00,
2013-02-24 07:27:00,36.4,34.0,29.83,South,190,0.0,1.0,91,0.11,,,0.31,Wunderground v.1.15,2013-02-24 12:27:00,
2013-02-24 07:33:00,36.3,33.9,29.84,South,190,0.0,1.0,91,0.07,,,0.32,Wunderground v.1.15,2013-02-24 12:33:00,
2013-02-24 07:39:00,36.1,33.7,29.83,South,190,0.0,1.0,91,0.07,,,0.33,Wunderground v.1.15,2013-02-24 12:39:00,
2013-02-24 07:45:00,36.0,33.6,29.83,South,190,0.0,1.0,91,0.07,,,0.33,Wunderground v.1.15,2013-02-24 12:45:00,
2013-02-24 07:51:00,35.8,33.4,29.82,South,190,0.0,1.0,91,0.06,,,0.34,Wunderground v.1.15,2013-02-24 12:51:00,
2013-02-24 07:57:00,35.6,33.2,29.82,South,190,0.0,1.0,91,0.06,,,0.34,Wunderground v.1.15,2013-02-24 12:57:00,
2013-02-24 08:03:00,35.5,33.1,29.82,WSW,238,0.0,1.0,91,0.05,,,0.35,Wunderground v.1.15,2013-02-24 13:03:00,
2013-02-24 08:09:00,35.4,33.0,29.82,WSW,239,0.0,1.0,91,0.05,,,0.35,Wunderground v.1.15,2013-02-24 13:09:00,
2013-02-24 08:15:00,35.3,32.9,29.81,WSW,239,0.0,1.0,91,0.05,,,0.35,Wunderground v.1.15,2013-02-24 13:15:00,
2013-02-24 08:21:00,35.3,32.9,29.81,WSW,239,0.0,1.0,91,0.00,,,0.35,Wunderground v.1.15,2013-02-24 13:21:00,
2013-02-24 08:27:00,35.3,32.9,29.81,WSW,239,0.0,1.0,91,0.00,,,0.36,Wunderground v.1.15,2013-02-24 13:27:00,
2013-02-24 08:33:00,35.3,32.9,29.81,WSW,238,0.0,1.0,91,0.06,,,0.37,Wunderground v.1.15,2013-02-24 13:33:00,
2013-02-24 08:39:00,35.3,32.9,29.81,WSW,238,0.0,1.0,91,0.06,,,0.37,Wunderground v.1.15,2013-02-24 13:39:00,
2013-02-24 08:45:00,35.3,32.9,29.80,WSW,239,0.0,1.0,91,0.05,,,0.37,Wunderground v.1.15,2013-02-24 13:45:00,
2013-02-24 08:51:00,35.4,33.0,29.80,WSW,239,0.0,1.0,91,0.04,,,0.38,Wunderground v.1.15,2013-02-24 13:51:00,
2013-02-24 08:57:00,35.4,33.0,29.80,WSW,239,0.0,1.0,91,0.04,,,0.38,Wunderground v.1.15,2013-02-24 13:57:00,
2013-02-24 09:03:00,35.5,33.1,29.80,WSW,238,0.0,1.0,91,0.05,,,0.39,Wunderground v.1.15,2013-02-24 14:03:00,
2013-02-24 09:09:00,35.6,33.2,29.80,WSW,239,0.0,1.0,91,0.05,,,0.39,Wunderground v.1.15,2013-02-24 14:09:00,
2013-02-24 09:15:00,35.7,33.3,29.79,WSW,239,0.0,1.0,91,0.04,,,0.39,Wunderground v.1.15,2013-02-24 14:15:00,
2013-02-24 09:21:00,35.7,33.3,29.79,WSW,239,0.0,1.0,91,0.00,,,0.40,Wunderground v.1.15,2013-02-24 14:21:00,
2013-02-24 09:27:00,35.7,33.3,29.79,WSW,239,0.0,1.0,91,0.00,,,0.40,Wunderground v.1.15,2013-02-24 14:27:00,
2013-02-24 09:33:00,35.7,33.3,29.79,WSW,239,0.0,1.0,91,0.06,,,0.41,Wunderground v.1.15,2013-02-24 14:33:00,
2013-02-24 09:39:00,35.6,33.2,29.79,WSW,239,0.0,1.0,91,0.06,,,0.41,Wunderground v.1.15,2013-02-24 14:39:00,
2013-02-24 09:45:00,35.5,33.1,29.79,WSW,238,0.0,1.0,91,0.06,,,0.42,Wunderground v.1.15,2013-02-24 14:45:00,
2013-02-24 09:51:00,35.4,33.0,29.78,WSW,239,0.0,1.0,91,0.07,,,0.43,Wunderground v.1.15,2013-02-24 14:51:00,
2013-02-24 09:57:00,35.5,33.1,29.78,WSW,238,0.0,1.0,91,0.07,,,0.43,Wunderground v.1.15,2013-02-24 14:57:00,
2013-02-24 10:03:00,35.5,33.1,29.78,WSW,239,0.0,1.0,91,0.05,,,0.44,Wunderground v.1.15,2013-02-24 15:03:00,
2013-02-24 10:09:00,35.6,33.2,29.77,WSW,240,0.0,2.0,91,0.05,,,0.44,Wunderground v.1.15,2013-02-24 15:09:00,
2013-02-24 10:15:00,35.7,33.3,29.77,WSW,240,0.0,1.0,91,0.06,,,0.45,Wunderground v.1.15,2013-02-24 15:15:00,
2013-02-24 10:21:00,35.8,33.4,29.77,WSW,240,0.0,1.0,91,0.05,,,0.45,Wunderground v.1.15,2013-02-24 15:21:00,
2013-02-24 10:27:00,35.9,33.5,29.78,West,266,0.0,1.0,91,0.04,,,0.46,Wunderground v.1.15,2013-02-24 15:27:00,
2013-02-24 10:33:00,35.9,33.5,29.78,WSW,237,1.0,1.0,91,0.04,,,0.46,Wunderground v.1.15,2013-02-24 15:33:00,
2013-02-24 10:39:00,35.9,33.5,29.77,South,180,1.0,2.0,91,0.05,,,0.47,Wunderground v.1.15,2013-02-24 15:39:00,
2013-02-24 10:45:00,35.9,33.5,29.77,WNW,295,1.0,1.0,91,0.05,,,0.47,Wunderground v.1.15,2013-02-24 15:45:00,
2013-02-24 10:51:00,35.8,33.4,29.77,West,269,1.0,1.0,91,0.04,,,0.47,Wunderground v.1.15,2013-02-24 15:51:00,
2013-02-24 10:57:00,35.7,33.3,29.77,West,263,1.0,1.0,91,0.00,,,0.48,Wunderground v.1.15,2013-02-24 15:57:00,
2013-02-24 11:03:00,35.7,33.3,29.77,WSW,252,1.0,1.0,91,0.00,,,0.48,Wunderground v.1.15,2013-02-24 16:03:00,
2013-02-24 11:09:00,35.7,33.3,29.77,ESE,116,1.0,1.0,91,0.00,,,0.48,Wunderground v.1.15,2013-02-24 16:09:00,
2013-02-24 11:15:00,35.7,33.3,29.77,WSW,249,0.0,1.0,91,0.00,,,0.49,Wunderground v.1.15,2013-02-24 16:15:00,
2013-02-24 11:21:00,35.8,33.4,29.77,WNW,285,0.0,2.0,91,0.00,,,0.49,Wunderground v.1.15,2013-02-24 16:21:00,
2013-02-24 11:27:00,35.7,33.1,29.77,WSW,249,1.0,4.0,90,0.00,,,0.49,Wunderground v.1.15,2013-02-24 16:27:00,
2013-02-24 11:33:00,35.7,33.1,29.77,WSW,253,1.0,1.0,90,0.00,,,0.49,Wunderground v.1.15,2013-02-24 16:33:00,
2013-02-24 11:39:00,35.6,33.0,29.76,SE,145,1.0,1.0,90,0.00,,,0.49,Wunderground v.1.15,2013-02-24 16:39:00,
2013-02-24 11:45:00,35.6,33.0,29.76,WNW,295,1.0,4.0,90,0.00,,,0.50,Wunderground v.1.15,2013-02-24 16:45:00,
2013-02-24 11:51:00,35.7,33.1,29.77,West,271,1.0,2.0,90,0.00,,,0.50,Wunderground v.1.15,2013-02-24 16:51:00,
2013-02-24 11:57:00,35.9,33.3,29.76,SE,131,1.0,6.0,90,0.00,,,0.50,Wunderground v.1.15,2013-02-24 16:57:00,
2013-02-24 12:03:00,36.0,33.4,29.77,SSW,198,1.0,1.0,90,0.00,,,0.51,Wunderground v.1.15,2013-02-24 17:03:00,
2013-02-24 12:09:00,36.1,33.2,29.77,WSW,253,1.0,1.0,89,0.00,,,0.51,Wunderground v.1.15,2013-02-24 17:09:00,
2013-02-24 12:15:00,36.1,33.2,29.77,West,264,1.0,2.0,89,0.00,,,0.51,Wunderground v.1.15,2013-02-24 17:15:00,
2013-02-24 12:21:00,36.0,33.1,29.77,West,276,1.0,1.0,89,0.00,,,0.51,Wunderground v.1.15,2013-02-24 17:21:00,
2013-02-24 12:27:00,36.0,33.1,29.76,WSW,253,0.0,1.0,89,0.00,,,0.51,Wunderground v.1.15,2013-02-24 17:27:00,
2013-02-24 12:33:00,35.9,33.0,29.76,East,87,0.0,1.0,89,0.00,,,0.51,Wunderground v.1.15,2013-02-24 17:33:00,
2013-02-24 12:39:00,35.7,32.8,29.76,West,276,0.0,2.0,89,0.00,,,0.51,Wunderground v.1.15,2013-02-24 17:39:00,
2013-02-24 12:45:00,35.4,32.5,29.76,WSW,242,1.0,1.0,89,0.00,,,0.51,Wunderground v.1.15,2013-02-24 17:45:00,
2013-02-24 12:51:00,35.3,32.4,29.76,SW,232,0.0,1.0,89,0.00,,,0.51,Wunderground v.1.15,2013-02-24 17:51:00,
2013-02-24 12:57:00,35.2,32.3,29.76,West,279,0.0,1.0,89,0.00,,,0.51,Wunderground v.1.15,2013-02-24 17:57:00,
2013-02-24 13:03:00,35.1,32.2,29.76,SSW,204,0.0,1.0,89,0.00,,,0.51,Wunderground v.1.15,2013-02-24 18:03:00,
2013-02-24 13:09:00,35.0,32.1,29.76,SW,230,0.0,1.0,89,0.00,,,0.51,Wunderground v.1.15,2013-02-24 18:09:00,
2013-02-24 13:15:00,35.0,32.1,29.75,WSW,248,0.0,2.0,89,0.00,,,0.51,Wunderground v.1.15,2013-02-24 18:15:00,
2013-02-24 13:21:00,34.9,32.0,29.75,WSW,246,0.0,1.0,89,0.00,,,0.51,Wunderground v.1.15,2013-02-24 18:21:00,
2013-02-24 13:27:00,34.8,31.9,29.75,SE,138,0.0,1.0,89,0.00,,,0.51,Wunderground v.1.15,2013-02-24 18:27:00,
2013-02-24 13:33:00,34.8,32.2,29.75,SSW,199,0.0,1.0,90,0.00,,,0.52,Wunderground v.1.15,2013-02-24 18:33:00,
2013-02-24 13:39:00,34.8,32.2,29.75,WSW,251,0.0,1.0,90,0.00,,,0.52,Wunderground v.1.15,2013-02-24 18:39:00,
2013-02-24 13:45:00,34.8,32.2,29.75,NE,56,0.0,1.0,90,0.04,,,0.53,Wunderground v.1.15,2013-02-24 18:45:00,
2013-02-24 13:51:00,34.9,32.3,29.75,ENE,60,0.0,1.0,90,0.04,,,0.53,Wunderground v.1.15,2013-02-24 18:51:00,
2013-02-24 13:57:00,35.0,32.4,29.75,North,355,0.0,1.0,90,0.05,,,0.54,Wunderground v.1.15,2013-02-24 18:57:00,
2013-02-24 14:03:00,35.1,32.5,29.74,WNW,289,0.0,2.0,90,0.05,,,0.54,Wunderground v.1.15,2013-02-24 19:03:00,
2013-02-24 14:09:00,35.1,32.5,29.74,NW,309,1.0,2.0,90,0.05,,,0.54,Wunderground v.1.15,2013-02-24 19:09:00,
2013-02-24 14:15:00,35.2,32.6,29.74,SSW,205,0.0,1.0,90,0.05,,,0.55,Wunderground v.1.15,2013-02-24 19:15:00,
2013-02-24 14:21:00,35.3,32.7,29.74,West,275,0.0,1.0,90,0.05,,,0.55,Wunderground v.1.15,2013-02-24 19:21:00,
2013-02-24 14:27:00,35.5,32.9,29.74,West,278,0.0,3.0,90,0.04,,,0.56,Wunderground v.1.15,2013-02-24 19:27:00,
2013-02-24 14:33:00,35.6,33.0,29.75,West,272,1.0,3.0,90,0.04,,,0.56,Wunderground v.1.15,2013-02-24 19:33:00,
2013-02-24 14:39:00,35.7,32.8,29.75,SSE,156,1.0,3.0,89,0.05,,,0.57,Wunderground v.1.15,2013-02-24 19:39:00,
2013-02-24 14:45:00,35.6,32.7,29.75,West,276,1.0,2.0,89,0.05,,,0.57,Wunderground v.1.15,2013-02-24 19:45:00,
2013-02-24 14:51:00,35.8,32.9,29.76,West,276,0.0,1.0,89,0.05,,,0.57,Wunderground v.1.15,2013-02-24 19:51:00,
2013-02-24 14:57:00,35.8,32.9,29.76,West,273,0.0,1.0,89,0.04,,,0.58,Wunderground v.1.15,2013-02-24 19:57:00,
2013-02-24 15:03:00,35.6,32.7,29.76,WSW,256,1.0,1.0,89,0.04,,,0.58,Wunderground v.1.15,2013-02-24 20:03:00,
2013-02-24 15:09:00,35.5,32.6,29.77,West,276,0.0,1.0,89,0.04,,,0.58,Wunderground v.1.15,2013-02-24 20:09:00,
2013-02-24 15:15:00,35.5,32.6,29.77,West,277,0.0,1.0,89,0.00,,,0.58,Wunderground v.1.15,2013-02-24 20:15:00,
2013-02-24 15:21:00,35.3,32.4,29.77,WNW,283,1.0,1.0,89,0.00,,,0.59,Wunderground v.1.15,2013-02-24 20:21:00,
2013-02-24 15:27:00,35.3,32.4,29.77,West,268,0.0,1.0,89,0.00,,,0.59,Wunderground v.1.15,2013-02-24 20:27:00,
2013-02-24 15:33:00,35.1,32.2,29.77,West,271,0.0,1.0,89,0.00,,,0.59,Wunderground v.1.15,2013-02-24 20:33:00,
2013-02-24 15:39:00,35.0,32.1,29.77,WSW,242,0.0,1.0,89,0.00,,,0.59,Wunderground v.1.15,2013-02-24 20:39:00,
2013-02-24 15:45:00,34.9,32.0,29.78,NE,40,0.0,3.0,89,0.00,,,0.59,Wunderground v.1.15,2013-02-24 20:45:00,
2013-02-24 15:51:00,34.9,32.0,29.78,WNW,288,0.0,1.0,89,0.00,,,0.60,Wunderground v.1.15,2013-02-24 20:51:00,
2013-02-24 15:57:00,34.8,31.9,29.78,WSW,242,0.0,1.0,89,0.00,,,0.60,Wunderground v.1.15,2013-02-24 20:57:00,
2013-02-24 16:03:00,34.8,31.9,29.78,WSW,246,0.0,1.0,89,0.00,,,0.60,Wunderground v.1.15,2013-02-24 21:03:00,
2013-02-24 16:09:00,34.8,31.9,29.78,WNW,300,0.0,1.0,89,0.00,,,0.60,Wunderground v.1.15,2013-02-24 21:09:00,
2013-02-24 16:15:00,34.5,31.6,29.78,WNW,294,0.0,2.0,89,0.00,,,0.60,Wunderground v.1.15,2013-02-24 21:15:00,
2013-02-24 16:21:00,34.4,31.5,29.78,West,277,0.0,1.0,89,0.00,,,0.60,Wunderground v.1.15,2013-02-24 21:21:00,
2013-02-24 16:27:00,34.4,31.5,29.79,WNW,288,0.0,1.0,89,0.00,,,0.60,Wunderground v.1.15,2013-02-24 21:27:00,
2013-02-24 16:33:00,34.4,31.5,29.79,WNW,288,0.0,1.0,89,0.00,,,0.61,Wunderground v.1.15,2013-02-24 21:33:00,
2013-02-24 16:39:00,34.4,31.8,29.79,WSW,256,0.0,1.0,90,0.00,,,0.61,Wunderground v.1.15,2013-02-24 21:39:00,
2013-02-24 16:45:00,34.4,31.8,29.79,WSW,256,0.0,1.0,90,0.00,,,0.61,Wunderground v.1.15,2013-02-24 21:45:00,
2013-02-24 16:51:00,34.4,31.8,29.79,WSW,256,0.0,1.0,90,0.00,,,0.61,Wunderground v.1.15,2013-02-24 21:51:00,
2013-02-24 16:57:00,34.4,31.8,29.79,WSW,256,0.0,1.0,90,0.00,,,0.61,Wunderground v.1.15,2013-02-24 21:57:00,
2013-02-24 17:03:00,34.4,31.5,29.80,West,273,0.0,2.0,89,0.00,,,0.61,Wunderground v.1.15,2013-02-24 22:03:00,
2013-02-24 17:09:00,34.3,31.7,29.80,West,279,1.0,2.0,90,0.00,,,0.61,Wunderground v.1.15,2013-02-24 22:09:00,
2013-02-24 17:15:00,34.2,31.6,29.80,West,275,1.0,2.0,90,0.00,,,0.61,Wunderground v.1.15,2013-02-24 22:15:00,
2013-02-24 17:21:00,34.2,31.6,29.81,ESE,116,0.0,1.0,90,0.00,,,0.61,Wunderground v.1.15,2013-02-24 22:21:00,
2013-02-24 17:27:00,34.1,31.5,29.81,East,96,0.0,1.0,90,0.00,,,0.61,Wunderground v.1.15,2013-02-24 22:27:00,
2013-02-24 17:33:00,34.1,31.5,29.81,West,263,0.0,1.0,90,0.00,,,0.61,Wunderground v.1.15,2013-02-24 22:33:00,
2013-02-24 17:39:00,34.1,31.5,29.82,WSW,251,0.0,1.0,90,0.00,,,0.61,Wunderground v.1.15,2013-02-24 22:39:00,
2013-02-24 17:45:00,34.0,31.4,29.82,SSW,205,0.0,1.0,90,0.00,,,0.61,Wunderground v.1.15,2013-02-24 22:45:00,
2013-02-24 17:51:00,34.0,31.4,29.82,West,272,0.0,1.0,90,0.00,,,0.61,Wunderground v.1.15,2013-02-24 22:51:00,
2013-02-24 17:57:00,34.0,31.4,29.83,West,272,0.0,1.0,90,0.00,,,0.61,Wunderground v.1.15,2013-02-24 22:57:00,
2013-02-24 18:03:00,34.0,31.4,29.82,West,272,0.0,1.0,90,0.00,,,0.61,Wunderground v.1.15,2013-02-24 23:03:00,
2013-02-24 18:09:00,33.9,31.3,29.82,West,272,0.0,1.0,90,0.00,,,0.61,Wunderground v.1.15,2013-02-24 23:09:00,
2013-02-24 18:15:00,33.9,31.3,29.83,West,272,0.0,1.0,90,0.00,,,0.61,Wunderground v.1.15,2013-02-24 23:15:00,
2013-02-24 18:21:00,33.9,31.3,29.83,West,281,0.0,1.0,90,0.00,,,0.61,Wunderground v.1.15,2013-02-24 23:21:00,
2013-02-24 18:27:00,33.8,32.8,29.83,WNW,286,0.0,1.0,96,0.00,,,0.61,Wunderground v.1.15,2013-02-24 23:27:00,
2013-02-24 18:33:00,33.7,31.1,29.84,WNW,286,0.0,1.0,90,0.00,,,0.61,Wunderground v.1.15,2013-02-24 23:33:00,
2013-02-24 18:39:00,33.7,31.1,29.84,WNW,286,0.0,1.0,90,0.00,,,0.61,Wunderground v.1.15,2013-02-24 23:39:00,
2013-02-24 18:45:00,33.7,31.1,29.85,WNW,286,0.0,1.0,90,0.00,,,0.61,Wunderground v.1.15,2013-02-24 23:45:00,
2013-02-24 18:51:00,33.6,31.0,29.85,WNW,283,0.0,1.0,90,0.00,,,0.61,Wunderground v.1.15,2013-02-24 23:51:00,
2013-02-24 18:57:00,33.6,31.0,29.85,WNW,283,0.0,1.0,90,0.00,,,0.61,Wunderground v.1.15,2013-02-24 23:57:00,
2013-02-24 19:03:00,33.6,31.0,29.86,WNW,283,0.0,1.0,90,0.00,,,0.61,Wunderground v.1.15,2013-02-25 00:03:00,
2013-02-24 19:09:00,33.6,31.0,29.86,WNW,283,0.0,1.0,90,0.00,,,0.61,Wunderground v.1.15,2013-02-25 00:09:00,
2013-02-24 19:15:00,33.6,31.0,29.86,WNW,283,0.0,1.0,90,0.00,,,0.61,Wunderground v.1.15,2013-02-25 00:15:00,
2013-02-24 19:21:00,33.6,31.0,29.86,SW,221,0.0,1.0,90,0.00,,,0.61,Wunderground v.1.15,2013-02-25 00:21:00,
2013-02-24 19:27:00,33.6,31.0,29.86,SW,221,0.0,1.0,90,0.00,,,0.62,Wunderground v.1.15,2013-02-25 00:27:00,
2013-02-24 19:33:00,33.6,31.0,29.87,SW,221,0.0,1.0,90,0.00,,,0.62,Wunderground v.1.15,2013-02-25 00:33:00,
2013-02-24 19:39:00,33.5,30.9,29.87,WSW,250,0.0,1.0,90,0.00,,,0.62,Wunderground v.1.15,2013-02-25 00:39:00,
2013-02-24 19:45:00,33.5,30.9,29.87,WSW,249,0.0,1.0,90,0.00,,,0.62,Wunderground v.1.15,2013-02-25 00:45:00,
2013-02-24 19:51:00,33.5,30.9,29.87,WNW,284,0.0,1.0,90,0.00,,,0.62,Wunderground v.1.15,2013-02-25 00:51:00,
2013-02-24 19:57:00,33.5,30.9,29.87,WNW,284,0.0,1.0,90,0.00,,,0.62,Wunderground v.1.15,2013-02-25 00:57:00,
2013-02-24 20:03:00,33.5,30.9,29.88,West,281,0.0,1.0,90,0.00,,,0.62,Wunderground v.1.15,2013-02-25 01:03:00,
2013-02-24 20:09:00,33.4,30.8,29.88,West,281,0.0,1.0,90,0.00,,,0.62,Wunderground v.1.15,2013-02-25 01:09:00,
2013-02-24 20:15:00,33.4,30.8,29.88,West,281,0.0,1.0,90,0.00,,,0.62,Wunderground v.1.15,2013-02-25 01:15:00,
2013-02-24 20:21:00,33.4,30.8,29.88,WNW,283,0.0,1.0,90,0.00,,,0.62,Wunderground v.1.15,2013-02-25 01:21:00,
2013-02-24 20:27:00,33.3,30.7,29.89,WNW,283,0.0,1.0,90,0.00,,,0.62,Wunderground v.1.15,2013-02-25 01:27:00,
2013-02-24 20:33:00,33.2,30.6,29.89,WNW,282,0.0,1.0,90,0.00,,,0.62,Wunderground v.1.15,2013-02-25 01:33:00,
2013-02-24 20:39:00,33.1,30.5,29.89,WNW,286,0.0,1.0,90,0.00,,,0.62,Wunderground v.1.15,2013-02-25 01:39:00,
2013-02-24 20:45:00,33.1,30.5,29.90,WNW,286,0.0,1.0,90,0.00,,,0.62,Wunderground v.1.15,2013-02-25 01:45:00,
2013-02-24 20:51:00,33.0,30.4,29.90,WSW,252,0.0,1.0,90,0.00,,,0.62,Wunderground v.1.15,2013-02-25 01:51:00,
2013-02-24 20:57:00,33.0,30.4,29.90,WNW,294,0.0,1.0,90,0.00,,,0.62,Wunderground v.1.15,2013-02-25 01:57:00,
2013-02-24 21:03:00,32.9,30.3,29.90,WNW,294,0.0,1.0,90,0.00,,,0.62,Wunderground v.1.15,2013-02-25 02:03:00,
2013-02-24 21:09:00,33.0,30.4,29.90,WNW,294,0.0,1.0,90,0.00,,,0.62,Wunderground v.1.15,2013-02-25 02:09:00,
2013-02-24 21:15:00,32.9,30.3,29.91,WNW,294,0.0,1.0,90,0.00,,,0.62,Wunderground v.1.15,2013-02-25 02:15:00,
2013-02-24 21:21:00,32.9,30.3,29.91,WNW,294,0.0,1.0,90,0.00,,,0.62,Wunderground v.1.15,2013-02-25 02:21:00,
2013-02-24 21:27:00,33.0,30.4,29.91,WNW,294,0.0,1.0,90,0.00,,,0.62,Wunderground v.1.15,2013-02-25 02:27:00,
2013-02-24 21:33:00,33.0,30.4,29.91,WNW,294,0.0,1.0,90,0.00,,,0.62,Wunderground v.1.15,2013-02-25 02:33:00,
2013-02-24 21:39:00,33.0,30.4,29.91,WNW,294,0.0,1.0,90,0.00,,,0.62,Wunderground v.1.15,2013-02-25 02:39:00,
2013-02-24 21:45:00,33.0,30.4,29.91,WNW,294,0.0,1.0,90,0.00,,,0.62,Wunderground v.1.15,2013-02-25 02:45:00,
2013-02-24 21:51:00,33.0,30.4,29.91,WNW,294,0.0,1.0,90,0.00,,,0.62,Wunderground v.1.15,2013-02-25 02:51:00,
2013-02-24 21:57:00,33.0,30.4,29.91,WNW,294,0.0,1.0,90,0.00,,,0.62,Wunderground v.1.15,2013-02-25 02:57:00,
2013-02-24 22:03:00,32.9,30.3,29.92,WNW,294,0.0,1.0,90,0.00,,,0.62,Wunderground v.1.15,2013-02-25 03:03:00,
2013-02-24 22:09:00,32.8,30.2,29.92,WNW,294,0.0,1.0,90,0.00,,,0.62,Wunderground v.1.15,2013-02-25 03:09:00,
2013-02-24 22:15:00,32.8,30.2,29.92,WNW,294,0.0,1.0,90,0.00,,,0.62,Wunderground v.1.15,2013-02-25 03:15:00,
2013-02-24 22:21:00,32.8,30.2,29.92,WNW,294,0.0,1.0,90,0.00,,,0.62,Wunderground v.1.15,2013-02-25 03:21:00,
2013-02-24 22:27:00,32.8,30.2,29.92,WNW,294,0.0,1.0,90,0.00,,,0.62,Wunderground v.1.15,2013-02-25 03:27:00,
2013-02-24 22:33:00,32.8,30.2,29.92,WNW,294,0.0,1.0,90,0.00,,,0.62,Wunderground v.1.15,2013-02-25 03:33:00,
2013-02-24 22:39:00,32.7,30.1,29.92,WNW,294,0.0,1.0,90,0.00,,,0.62,Wunderground v.1.15,2013-02-25 03:39:00,
2013-02-24 22:45:00,32.7,30.1,29.92,WNW,294,0.0,1.0,90,0.00,,,0.62,Wunderground v.1.15,2013-02-25 03:45:00,
2013-02-24 22:51:00,32.7,30.1,29.92,WNW,294,0.0,1.0,90,0.00,,,0.62,Wunderground v.1.15,2013-02-25 03:51:00,
2013-02-24 22:57:00,32.7,30.1,29.92,WNW,294,0.0,1.0,90,0.00,,,0.62,Wunderground v.1.15,2013-02-25 03:57:00,
2013-02-24 23:03:00,32.8,30.2,29.92,WNW,294,0.0,1.0,90,0.00,,,0.62,Wunderground v.1.15,2013-02-25 04:03:00,
2013-02-24 23:09:00,32.8,30.2,29.92,WNW,294,0.0,1.0,90,0.00,,,0.62,Wunderground v.1.15,2013-02-25 04:09:00,
2013-02-24 23:15:00,32.8,30.2,29.92,WNW,294,0.0,1.0,90,0.00,,,0.62,Wunderground v.1.15,2013-02-25 04:15:00,
2013-02-24 23:21:00,32.8,30.2,29.92,WNW,294,0.0,1.0,90,0.00,,,0.62,Wunderground v.1.15,2013-02-25 04:21:00,
2013-02-24 23:27:00,32.8,30.2,29.93,WNW,294,0.0,1.0,90,0.00,,,0.62,Wunderground v.1.15,2013-02-25 04:27:00,
2013-02-24 23:33:00,32.7,30.1,29.93,WNW,294,0.0,1.0,90,0.00,,,0.62,Wunderground v.1.15,2013-02-25 04:33:00,
2013-02-24 23:39:00,32.6,30.0,29.93,WNW,294,0.0,1.0,90,0.00,,,0.62,Wunderground v.1.15,2013-02-25 04:39:00,
2013-02-24 23:45:00,32.6,30.0,29.93,WNW,294,0.0,1.0,90,0.00,,,0.62,Wunderground v.1.15,2013-02-25 04:45:00,
2013-02-24 23:51:00,32.6,30.0,29.93,WNW,294,0.0,1.0,90,0.00,,,0.62,Wunderground v.1.15,2013-02-25 04:51:00,
2013-02-24 23:57:00,32.6,30.0,29.94,WNW,294,0.0,1.0,90,0.00,,,0.62,Wunderground v.1.15,2013-02-25 04:57:00,